createdAt,value
2018-08-24T00:10:02.893Z,10.1
2018-08-24T00:20:17.378Z,2.6
2018-08-24T00:30:31.735Z,0
2018-08-24T00:40:46.881Z,0
2018-08-24T00:51:00.670Z,1.5
2018-08-24T01:01:14.667Z,1.6
2018-08-24T01:11:29.324Z,1.8
2018-08-24T01:21:44.217Z,1.9
2018-08-24T01:31:58.320Z,1.6
2018-08-24T01:42:12.494Z,1.5
2018-08-24T01:52:27.557Z,2.6
2018-08-24T02:02:43.134Z,7.3
2018-08-24T02:12:58.685Z,12.6
2018-08-24T02:23:12.809Z,21.4
2018-08-24T02:33:28.419Z,18.8
2018-08-24T02:43:43.739Z,12
2018-08-24T02:53:58.123Z,9.8
2018-08-24T03:04:12.756Z,6.5
2018-08-24T03:14:27.420Z,3
2018-08-24T03:24:42.363Z,1.3
2018-08-24T03:34:56.396Z,1.4
2018-08-24T03:45:11.335Z,1.2
2018-08-24T03:55:25.690Z,0.8
2018-08-24T04:05:39.585Z,1.3
2018-08-24T04:15:54.877Z,2.3
2018-08-24T04:26:10.212Z,1.8
2018-08-24T04:36:24.047Z,1.5
2018-08-24T04:46:38.391Z,0.9
2018-08-24T04:56:53.614Z,0
2018-08-24T05:07:08.809Z,0
2018-08-24T05:17:22.558Z,0
2018-08-24T05:27:37.039Z,0.1
2018-08-24T05:37:51.378Z,0.9
2018-08-24T05:48:06.309Z,1.5
2018-08-24T05:58:20.482Z,1.9
2018-08-24T06:08:35.162Z,2.8
2018-08-24T06:18:49.418Z,3.6
2018-08-24T06:29:04.792Z,3.7
2018-08-24T06:39:19.027Z,4.3
2018-08-24T06:49:34.572Z,5.7
2018-08-24T06:59:49.455Z,8.9
2018-08-24T07:10:04.235Z,9.7
2018-08-24T07:20:18.956Z,10.4
2018-08-24T07:30:33.788Z,12.3
2018-08-24T07:40:49.569Z,13.1
2018-08-24T07:51:05.335Z,17.4
2018-08-24T08:01:20.634Z,17.6
2018-08-24T08:11:35.640Z,20.1
2018-08-24T08:21:49.943Z,29.8
2018-08-24T08:32:05.125Z,42.8
2018-08-24T08:42:20.882Z,62.5
2018-08-24T08:52:36.509Z,80.4
2018-08-24T09:02:50.830Z,89.9
2018-08-24T09:13:05.999Z,90.5
2018-08-24T09:23:21.406Z,97.8
2018-08-24T09:33:37.076Z,96.6
2018-08-24T09:43:52.598Z,98.6
2018-08-24T09:54:07.938Z,100
2018-08-24T10:04:22.868Z,95.5
2018-08-24T10:14:37.283Z,91.4
2018-08-24T10:24:51.821Z,92.5
2018-08-24T10:35:07.067Z,90.2
2018-08-24T10:45:21.913Z,85.3
2018-08-24T10:55:37.153Z,83.3
2018-08-24T11:05:52.165Z,77.2
2018-08-24T11:16:08.081Z,75.4
2018-08-24T11:26:23.447Z,73.6
2018-08-24T11:36:38.304Z,72
2018-08-24T11:46:52.834Z,72.6
2018-08-24T11:57:08.455Z,70.6
2018-08-24T12:07:23.723Z,68.9
2018-08-24T12:17:39.572Z,69.5
2018-08-24T12:27:54.240Z,68.2
2018-08-24T12:38:08.191Z,68.9
2018-08-24T12:48:23.348Z,67.2
2018-08-24T12:58:39.002Z,67.5
2018-08-24T13:08:54.362Z,65.7
2018-08-24T13:19:09.322Z,64.4
2018-08-24T13:29:23.845Z,65.8
2018-08-24T13:39:39.557Z,67.5
2018-08-24T13:49:54.548Z,67.1
2018-08-24T14:00:10.170Z,66
2018-08-24T14:10:24.767Z,65.7
2018-08-24T14:20:39.992Z,67.1
2018-08-24T14:30:53.881Z,68.4
2018-08-24T14:41:07.847Z,68.1
2018-08-24T14:51:22.016Z,69
2018-08-24T15:01:37.718Z,69.5
2018-08-24T15:11:52.826Z,69.7
2018-08-24T15:22:07.687Z,68.7
2018-08-24T15:32:21.746Z,68.2
2018-08-24T15:42:37.502Z,68.4
2018-08-24T15:52:52.937Z,68.7
2018-08-24T16:03:07.862Z,70.4
2018-08-24T16:13:22.724Z,71.9
2018-08-24T16:23:38.451Z,72
2018-08-24T16:33:54.312Z,72.3
2018-08-24T16:44:08.465Z,73.3
2018-08-24T16:54:23.700Z,73.5
2018-08-24T17:04:37.636Z,73.7
2018-08-24T17:14:52.296Z,71.8
2018-08-24T17:25:06.119Z,71.7
2018-08-24T17:35:20.673Z,72.4
2018-08-24T17:45:34.680Z,73.3
2018-08-24T17:55:49.056Z,73.6
2018-08-24T18:06:04.698Z,73.6
2018-08-24T18:16:18.658Z,74.6
2018-08-24T18:26:33.387Z,75.6
2018-08-24T18:36:48.687Z,76.6
2018-08-24T18:47:03.091Z,77.8
2018-08-24T18:57:17.626Z,77.6
2018-08-24T19:07:32.154Z,77.8
2018-08-24T19:17:47.675Z,78.3
2018-08-24T19:28:02.288Z,78.7
2018-08-24T19:38:17.752Z,79.9
2018-08-24T19:48:31.707Z,80.3
2018-08-24T19:58:46.483Z,80.7
2018-08-24T20:09:00.708Z,81.5
2018-08-24T20:19:14.812Z,82.5
2018-08-24T20:29:28.555Z,83.2
2018-08-24T20:39:43.974Z,83.7
2018-08-24T20:49:58.464Z,84.2
2018-08-24T21:00:14.185Z,84.6
2018-08-24T21:10:28.093Z,84.9
2018-08-24T21:20:41.841Z,84.8
2018-08-24T21:30:56.951Z,85.5
2018-08-24T21:41:12.150Z,85.3
2018-08-24T21:51:27.503Z,85.9
2018-08-24T22:01:41.990Z,86.4
2018-08-24T22:11:57.505Z,86.4
2018-08-24T22:22:11.806Z,86.3
2018-08-24T22:32:26.935Z,85.9
2018-08-24T22:42:41.201Z,85.5
2018-08-24T22:52:56.154Z,85.4
2018-08-24T23:03:09.988Z,84.8
2018-08-24T23:13:24.991Z,85.5
2018-08-24T23:23:40.569Z,85.5
2018-08-24T23:33:55.908Z,86.1
2018-08-24T23:44:09.771Z,86.7
2018-08-24T23:54:23.788Z,86.8
